createdAt,value
2022-08-17T00:00:43.125Z,19.67
2022-08-17T00:03:17.500Z,19.65
2022-08-17T00:05:49.620Z,19.61
2022-08-17T00:08:21.287Z,19.59
2022-08-17T00:10:51.420Z,19.55
2022-08-17T00:13:26.088Z,19.53
2022-08-17T00:15:58.975Z,19.50
2022-08-17T00:18:58.346Z,19.47
2022-08-17T00:21:23.781Z,19.49
2022-08-17T00:23:55.437Z,19.47
2022-08-17T00:26:43.656Z,19.44
2022-08-17T00:29:19.757Z,19.44
2022-08-17T00:31:50.062Z,19.45
2022-08-17T00:34:19.382Z,19.40
2022-08-17T00:36:48.415Z,19.32
2022-08-17T00:39:17.380Z,19.34
2022-08-17T00:41:48.727Z,19.28
2022-08-17T00:44:19.894Z,19.23
2022-08-17T00:46:48.525Z,19.19
2022-08-17T00:49:19.499Z,19.16
2022-08-17T00:51:53.655Z,19.17
2022-08-17T00:54:28.706Z,19.16
2022-08-17T00:57:02.379Z,19.16
2022-08-17T00:59:40.568Z,19.19
2022-08-17T01:02:11.354Z,19.22
2022-08-17T01:04:41.208Z,19.21
2022-08-17T01:07:13.541Z,19.14
2022-08-17T01:09:44.271Z,19.15
2022-08-17T01:12:14.147Z,19.16
2022-08-17T01:14:44.420Z,19.23
2022-08-17T01:17:13.344Z,19.21
2022-08-17T01:19:44.082Z,19.18
2022-08-17T01:22:22.756Z,19.13
2022-08-17T01:24:54.492Z,19.13
2022-08-17T01:27:23.429Z,19.10
2022-08-17T01:30:57.465Z,19.05
2022-08-17T01:32:57.070Z,18.97
2022-08-17T01:35:25.719Z,18.99
2022-08-17T01:37:56.196Z,19.00
2022-08-17T01:40:30.351Z,19.01
2022-08-17T01:43:01.875Z,18.96
2022-08-17T01:45:35.157Z,18.89
2022-08-17T01:48:03.640Z,18.94
2022-08-17T01:50:35.534Z,18.96
2022-08-17T01:53:07.193Z,18.98
2022-08-17T01:55:41.730Z,18.95
2022-08-17T01:58:10.533Z,18.93
2022-08-17T02:00:59.782Z,18.90
2022-08-17T02:03:31.068Z,18.99
2022-08-17T02:06:00.476Z,19.01
2022-08-17T02:08:37.324Z,18.96
2022-08-17T02:11:16.097Z,18.83
2022-08-17T02:13:45.547Z,18.77
2022-08-17T02:16:15.818Z,18.69
2022-08-17T02:18:44.978Z,18.69
2022-08-17T02:21:15.181Z,18.71
2022-08-17T02:23:49.407Z,18.68
2022-08-17T02:26:25.901Z,18.63
2022-08-17T02:28:55.997Z,18.59
2022-08-17T02:31:24.586Z,18.61
2022-08-17T02:34:00.428Z,18.55
2022-08-17T02:36:34.217Z,18.53
2022-08-17T02:39:06.662Z,18.54
2022-08-17T02:41:35.682Z,18.48
2022-08-17T02:44:06.126Z,18.45
2022-08-17T02:46:35.407Z,18.37
2022-08-17T02:49:05.160Z,18.32
2022-08-17T02:51:34.310Z,18.30
2022-08-17T02:54:41.692Z,18.28
2022-08-17T02:56:53.560Z,18.22
2022-08-17T02:59:22.589Z,18.17
2022-08-17T03:01:51.564Z,18.15
2022-08-17T03:04:20.565Z,18.18
2022-08-17T03:06:50.445Z,18.22
2022-08-17T03:09:20.764Z,18.23
2022-08-17T03:11:53.168Z,18.22
2022-08-17T03:14:25.065Z,18.24
2022-08-17T03:16:55.259Z,18.24
2022-08-17T03:19:24.404Z,18.23
2022-08-17T03:21:55.198Z,18.26
2022-08-17T03:24:28.943Z,18.19
2022-08-17T03:26:58.554Z,18.15
2022-08-17T03:29:27.271Z,18.12
2022-08-17T03:31:55.852Z,18.06
2022-08-17T03:34:25.541Z,18.11
2022-08-17T03:36:54.953Z,18.14
2022-08-17T03:39:25.834Z,18.04
2022-08-17T03:41:54.903Z,18.04
2022-08-17T03:44:24.190Z,18.04
2022-08-17T03:47:10.693Z,18.04
2022-08-17T03:49:57.971Z,18.05
2022-08-17T03:52:44.100Z,18.07
2022-08-17T03:55:36.298Z,18.09
2022-08-17T03:58:05.340Z,18.10
2022-08-17T04:00:36.500Z,18.11
2022-08-17T04:03:09.063Z,18.12
2022-08-17T04:05:38.390Z,18.15
2022-08-17T04:08:10.473Z,18.19
2022-08-17T04:10:45.144Z,18.22
2022-08-17T04:13:15.511Z,18.23
2022-08-17T04:15:53.129Z,18.27
2022-08-17T04:18:22.148Z,18.28
2022-08-17T04:20:51.300Z,18.37
2022-08-17T04:23:20.939Z,18.40
2022-08-17T04:25:53.370Z,18.42
2022-08-17T04:28:22.571Z,18.45
2022-08-17T04:30:52.160Z,18.48
2022-08-17T04:33:24.314Z,18.53
2022-08-17T04:35:55.343Z,18.56
2022-08-17T04:38:27.497Z,18.63
2022-08-17T04:41:16.542Z,18.71
2022-08-17T04:43:48.155Z,18.78
2022-08-17T04:46:18.618Z,18.82
2022-08-17T04:48:51.041Z,18.88
2022-08-17T04:51:22.776Z,18.93
2022-08-17T04:53:54.430Z,19.01
2022-08-17T04:56:27.391Z,19.05
2022-08-17T04:58:59.083Z,19.14
2022-08-17T05:01:29.691Z,19.20
2022-08-17T05:04:02.382Z,19.28
2022-08-17T05:06:50.006Z,19.33
2022-08-17T05:09:19.876Z,19.36
2022-08-17T05:11:50.881Z,19.37
2022-08-17T05:14:32.854Z,19.44
2022-08-17T05:17:07.359Z,19.48
2022-08-17T05:19:41.312Z,19.53
2022-08-17T05:22:10.203Z,19.59
2022-08-17T05:24:43.658Z,19.66
2022-08-17T05:27:24.694Z,19.75
2022-08-17T05:30:00.919Z,19.80
2022-08-17T05:32:38.921Z,19.86
2022-08-17T05:35:17.806Z,19.99
2022-08-17T05:37:46.944Z,20.08
2022-08-17T05:40:16.498Z,20.20
2022-08-17T05:42:47.363Z,20.29
2022-08-17T05:45:23.665Z,20.44
2022-08-17T05:48:09.276Z,20.56
2022-08-17T05:50:46.159Z,20.65
2022-08-17T05:53:24.440Z,20.74
2022-08-17T05:56:04.058Z,20.80
2022-08-17T05:58:42.741Z,20.93
2022-08-17T06:01:21.216Z,21.03
2022-08-17T06:03:54.977Z,21.10
2022-08-17T06:06:42.369Z,21.25
2022-08-17T06:09:36.624Z,21.37
2022-08-17T06:12:23.569Z,21.60
2022-08-17T06:15:14.936Z,21.68
2022-08-17T06:17:44.975Z,21.81
2022-08-17T06:20:16.323Z,21.96
2022-08-17T06:22:48.531Z,22.10
2022-08-17T06:25:20.300Z,22.18
2022-08-17T06:27:53.522Z,22.29
2022-08-17T06:30:26.289Z,22.33
2022-08-17T06:32:59.815Z,22.39
2022-08-17T06:35:34.437Z,22.44
2022-08-17T06:38:37.178Z,22.56
2022-08-17T06:41:15.146Z,22.68
2022-08-17T06:44:03.010Z,22.72
2022-08-17T06:46:39.432Z,22.73
2022-08-17T06:49:20.182Z,22.80
2022-08-17T06:51:54.466Z,22.98
2022-08-17T06:54:34.775Z,23.17
2022-08-17T06:57:14.748Z,23.33
2022-08-17T06:59:55.702Z,23.43
2022-08-17T07:03:02.809Z,23.57
2022-08-17T07:05:38.830Z,23.64
2022-08-17T07:08:15.131Z,23.74
2022-08-17T07:10:50.530Z,23.89
2022-08-17T07:13:31.347Z,24.08
2022-08-17T07:16:17.253Z,24.24
2022-08-17T07:18:48.613Z,24.41
2022-08-17T07:21:31.127Z,24.48
2022-08-17T07:24:28.103Z,24.48
2022-08-17T07:27:10.919Z,24.59
2022-08-17T07:29:44.253Z,24.70
2022-08-17T07:32:18.680Z,24.85
2022-08-17T07:35:41.069Z,25.04
2022-08-17T07:38:24.989Z,25.15
2022-08-17T07:41:06.691Z,25.35
2022-08-17T07:43:38.125Z,25.48
2022-08-17T07:46:37.524Z,25.62
2022-08-17T07:49:23.163Z,25.79
2022-08-17T07:52:24.146Z,25.85
2022-08-17T07:54:50.080Z,25.98
2022-08-17T07:57:37.224Z,25.93
2022-08-17T08:00:30.810Z,25.89
2022-08-17T08:03:13.473Z,26.03
2022-08-17T08:05:54.220Z,26.24
2022-08-17T08:08:28.690Z,26.37
2022-08-17T08:11:06.432Z,26.59
2022-08-17T08:13:40.680Z,26.70
2022-08-17T08:16:24.557Z,26.66
2022-08-17T08:18:58.102Z,26.65
2022-08-17T08:21:36.737Z,26.70
2022-08-17T08:24:24.524Z,26.62
2022-08-17T08:27:09.323Z,26.67
2022-08-17T08:29:47.629Z,26.74
2022-08-17T08:32:21.921Z,26.77
2022-08-17T08:35:04.130Z,26.67
2022-08-17T08:37:45.283Z,26.90
2022-08-17T08:40:31.614Z,26.97
2022-08-17T08:43:10.273Z,27.15
2022-08-17T08:45:52.341Z,27.28
2022-08-17T08:48:55.998Z,27.40
2022-08-17T08:51:39.015Z,27.51
2022-08-17T08:54:26.843Z,27.73
2022-08-17T09:00:08.172Z,27.36
2022-08-17T09:03:02.758Z,27.25
2022-08-17T09:05:44.324Z,27.42
2022-08-17T09:08:26.128Z,27.60
2022-08-17T09:11:03.277Z,27.62
2022-08-17T09:13:43.589Z,27.79
2022-08-17T09:16:17.623Z,27.82
2022-08-17T09:19:00.773Z,27.82
2022-08-17T09:21:47.888Z,28.05
2022-08-17T09:24:25.185Z,28.24
2022-08-17T09:27:00.187Z,28.38
2022-08-17T09:29:35.418Z,28.76
2022-08-17T09:32:10.750Z,28.68
2022-08-17T09:34:46.991Z,28.48
2022-08-17T09:37:24.343Z,28.70
2022-08-17T09:40:05.682Z,28.99
2022-08-17T09:42:43.995Z,29.08
2022-08-17T09:45:29.276Z,29.10
2022-08-17T09:48:04.902Z,29.22
2022-08-17T09:51:03.139Z,28.84
2022-08-17T09:53:33.357Z,28.43
2022-08-17T09:56:19.349Z,28.21
2022-08-17T09:59:14.811Z,28.19
2022-08-17T10:01:52.937Z,28.34
2022-08-17T10:04:33.813Z,28.76
2022-08-17T10:07:08.549Z,29.26
2022-08-17T10:09:45.958Z,29.73
2022-08-17T10:12:30.102Z,29.97
2022-08-17T10:15:09.846Z,30.12
2022-08-17T10:17:53.576Z,30.32
2022-08-17T10:20:27.688Z,30.24
2022-08-17T10:23:18.652Z,30.20
2022-08-17T10:26:10.047Z,30.41
2022-08-17T10:28:44.914Z,30.72
2022-08-17T10:31:40.800Z,30.92
2022-08-17T10:34:41.015Z,30.85
2022-08-17T10:37:25.404Z,31.05
2022-08-17T10:40:08.878Z,30.68
2022-08-17T10:42:47.311Z,30.34
2022-08-17T10:45:20.670Z,30.48
2022-08-17T10:48:05.104Z,30.53
2022-08-17T10:50:49.848Z,30.32
2022-08-17T10:53:55.846Z,29.86
2022-08-17T10:56:41.731Z,29.93
2022-08-17T10:59:10.609Z,30.28
2022-08-17T11:02:13.406Z,30.74
2022-08-17T11:04:59.837Z,30.86
2022-08-17T11:07:47.782Z,30.76
2022-08-17T11:10:51.916Z,30.50
2022-08-17T11:13:30.855Z,30.18
2022-08-17T11:16:13.285Z,30.28
2022-08-17T11:19:10.184Z,30.84
2022-08-17T11:22:15.545Z,30.62
2022-08-17T11:24:51.742Z,30.18
2022-08-17T11:27:28.125Z,29.83
2022-08-17T11:30:02.425Z,29.58
2022-08-17T11:32:39.102Z,29.39
2022-08-17T11:35:34.977Z,29.19
2022-08-17T11:38:16.445Z,29.00
2022-08-17T11:41:15.527Z,28.80
2022-08-17T11:44:02.132Z,28.67
2022-08-17T11:47:00.082Z,28.55
2022-08-17T11:50:01.731Z,28.53
2022-08-17T11:52:40.807Z,28.46
2022-08-17T11:55:34.430Z,28.40
2022-08-17T11:58:06.616Z,28.31
2022-08-17T12:00:51.577Z,28.20
2022-08-17T12:03:27.105Z,28.17
2022-08-17T12:06:05.783Z,28.11
2022-08-17T12:08:41.949Z,28.07
2022-08-17T12:11:19.101Z,28.09
2022-08-17T12:14:16.952Z,28.22
2022-08-17T12:16:59.992Z,28.78
2022-08-17T12:19:29.823Z,29.52
2022-08-17T12:22:05.587Z,29.91
2022-08-17T12:24:46.486Z,30.00
2022-08-17T12:27:48.938Z,29.76
2022-08-17T12:30:19.648Z,29.86
2022-08-17T12:32:50.355Z,30.27
2022-08-17T12:35:22.795Z,30.68
2022-08-17T12:37:52.982Z,30.91
2022-08-17T12:40:27.676Z,31.00
2022-08-17T12:42:59.339Z,31.10
2022-08-17T12:45:32.423Z,31.24
2022-08-17T12:48:02.826Z,31.44
2022-08-17T12:50:32.421Z,31.52
2022-08-17T12:53:02.880Z,31.49
2022-08-17T12:55:39.051Z,31.51
2022-08-17T12:58:14.346Z,31.61
2022-08-17T13:00:50.239Z,31.71
2022-08-17T13:03:21.214Z,31.78
2022-08-17T13:05:59.115Z,31.98
2022-08-17T13:08:31.481Z,31.94
2022-08-17T13:11:02.688Z,32.07
2022-08-17T13:13:33.138Z,32.12
2022-08-17T13:16:09.885Z,32.11
2022-08-17T13:18:45.314Z,32.13
2022-08-17T13:21:23.888Z,32.05
2022-08-17T13:23:58.822Z,32.00
2022-08-17T13:26:32.675Z,31.97
2022-08-17T13:29:03.148Z,32.04
2022-08-17T13:31:47.458Z,31.95
2022-08-17T13:34:44.536Z,31.73
2022-08-17T13:37:33.702Z,31.75
2022-08-17T13:40:25.831Z,31.56
2022-08-17T13:42:56.639Z,31.45
2022-08-17T13:46:08.781Z,31.56
2022-08-17T13:48:39.406Z,31.39
2022-08-17T13:51:22.634Z,31.30
2022-08-17T13:54:13.611Z,31.21
2022-08-17T13:56:55.419Z,31.29
2022-08-17T13:59:52.609Z,31.31
2022-08-17T14:02:20.316Z,31.44
2022-08-17T14:04:50.666Z,31.41
2022-08-17T14:07:29.744Z,31.41
2022-08-17T14:10:02.155Z,31.47
2022-08-17T14:12:33.246Z,31.52
2022-08-17T14:15:02.314Z,31.41
2022-08-17T14:17:35.002Z,31.34
2022-08-17T14:20:12.049Z,31.25
2022-08-17T14:22:45.664Z,31.13
2022-08-17T14:25:16.734Z,30.91
2022-08-17T14:27:52.893Z,30.85
2022-08-17T14:30:25.839Z,30.87
2022-08-17T14:32:58.293Z,30.85
2022-08-17T14:35:29.566Z,30.82
2022-08-17T14:37:58.689Z,30.79
2022-08-17T14:40:28.311Z,30.75
2022-08-17T14:42:58.079Z,30.57
2022-08-17T14:45:33.016Z,30.49
2022-08-17T14:48:05.794Z,30.31
2022-08-17T14:50:38.473Z,30.00
2022-08-17T14:53:08.642Z,29.90
2022-08-17T14:55:41.524Z,29.93
2022-08-17T14:58:10.510Z,29.92
2022-08-17T15:00:40.214Z,29.95
2022-08-17T15:03:08.837Z,29.95
2022-08-17T15:05:40.402Z,29.96
2022-08-17T15:08:09.395Z,29.88
2022-08-17T15:10:39.388Z,29.83
2022-08-17T15:13:19.260Z,29.79
2022-08-17T15:15:49.203Z,29.77
2022-08-17T15:18:19.100Z,29.77
2022-08-17T15:20:51.098Z,29.70
2022-08-17T15:23:22.413Z,29.60
2022-08-17T15:25:52.627Z,29.54
2022-08-17T15:28:23.171Z,29.47
2022-08-17T15:30:52.924Z,29.40
2022-08-17T15:33:30.414Z,29.24
2022-08-17T15:36:03.513Z,29.06
2022-08-17T15:38:35.465Z,28.94
2022-08-17T15:41:04.921Z,28.80
2022-08-17T15:43:34.148Z,28.73
2022-08-17T15:46:05.854Z,28.65
2022-08-17T15:48:42.462Z,28.56
2022-08-17T15:51:14.992Z,28.50
2022-08-17T15:53:45.311Z,28.44
2022-08-17T15:56:15.879Z,28.39
2022-08-17T15:58:47.061Z,28.31
2022-08-17T16:02:53.876Z,28.25
2022-08-17T16:04:26.897Z,28.18
2022-08-17T16:07:00.569Z,28.04
2022-08-17T16:09:29.723Z,27.90
2022-08-17T16:11:59.413Z,27.78
2022-08-17T16:14:33.578Z,27.66
2022-08-17T16:17:04.692Z,27.47
2022-08-17T16:19:34.521Z,27.34
2022-08-17T16:22:05.461Z,27.26
2022-08-17T16:24:34.955Z,27.19
2022-08-17T16:27:04.637Z,27.11
2022-08-17T16:29:42.538Z,27.07
2022-08-17T16:32:14.709Z,27.01
2022-08-17T16:34:44.250Z,26.93
2022-08-17T16:37:14.724Z,26.85
2022-08-17T16:39:43.631Z,26.74
2022-08-17T16:42:24.673Z,26.62
2022-08-17T16:44:54.790Z,26.54
2022-08-17T16:47:24.175Z,26.44
2022-08-17T16:49:53.491Z,26.36
2022-08-17T16:52:32.593Z,26.29
2022-08-17T16:55:04.471Z,26.25
2022-08-17T16:57:33.198Z,26.18
2022-08-17T17:00:02.156Z,26.13
2022-08-17T17:02:33.471Z,26.04
2022-08-17T17:05:13.252Z,26.01
2022-08-17T17:07:53.798Z,25.92
2022-08-17T17:10:25.438Z,25.88
2022-08-17T17:13:00.825Z,25.83
2022-08-17T17:15:45.165Z,25.77
2022-08-17T17:18:15.404Z,25.68
2022-08-17T17:20:51.253Z,25.60
2022-08-17T17:23:35.442Z,25.53
2022-08-17T17:26:13.055Z,25.48
2022-08-17T17:28:57.032Z,25.42
2022-08-17T17:31:31.006Z,25.33
2022-08-17T17:34:04.114Z,25.29
2022-08-17T17:36:39.818Z,25.23
2022-08-17T17:39:14.612Z,25.18
2022-08-17T17:41:48.483Z,25.10
2022-08-17T17:44:23.915Z,25.06
2022-08-17T17:46:56.257Z,25.00
2022-08-17T17:49:26.722Z,24.94
2022-08-17T17:52:07.874Z,24.86
2022-08-17T17:54:52.784Z,24.78
2022-08-17T17:57:34.454Z,24.71
2022-08-17T18:00:09.538Z,24.67
2022-08-17T18:02:51.882Z,24.65
2022-08-17T18:05:48.825Z,24.56
2022-08-17T18:08:37.666Z,24.47
2022-08-17T18:11:24.601Z,24.37
2022-08-17T18:14:14.590Z,24.28
2022-08-17T18:16:44.107Z,24.16
2022-08-17T18:19:15.283Z,24.07
2022-08-17T18:21:47.118Z,24.00
2022-08-17T18:24:15.954Z,23.90
2022-08-17T18:26:55.112Z,23.81
2022-08-17T18:29:34.546Z,23.75
2022-08-17T18:32:23.131Z,23.72
2022-08-17T18:34:54.479Z,23.70
2022-08-17T18:37:45.207Z,23.62
2022-08-17T18:40:34.716Z,23.52
2022-08-17T18:43:08.617Z,23.47
2022-08-17T18:45:41.890Z,23.43
2022-08-17T18:48:24.901Z,23.33
2022-08-17T18:50:55.347Z,23.21
2022-08-17T18:53:34.189Z,23.14
2022-08-17T18:56:24.691Z,23.08
2022-08-17T18:59:11.652Z,23.02
2022-08-17T19:01:54.610Z,22.98
2022-08-17T19:04:34.090Z,22.90
2022-08-17T19:07:09.387Z,22.82
2022-08-17T19:09:43.778Z,22.76
2022-08-17T19:12:27.211Z,22.68
2022-08-17T19:14:59.778Z,22.62
2022-08-17T19:17:37.985Z,22.57
2022-08-17T19:20:13.463Z,22.55
2022-08-17T19:23:10.428Z,22.49
2022-08-17T19:25:44.472Z,22.45
2022-08-17T19:28:22.641Z,22.41
2022-08-17T19:30:57.371Z,22.39
2022-08-17T19:33:28.090Z,22.33
2022-08-17T19:36:07.741Z,22.30
2022-08-17T19:38:43.737Z,22.24
2022-08-17T19:41:20.982Z,22.21
2022-08-17T19:44:00.595Z,22.17
2022-08-17T19:46:48.584Z,22.16
2022-08-17T19:49:33.045Z,22.11
2022-08-17T19:52:24.221Z,22.05
2022-08-17T19:55:01.974Z,21.99
2022-08-17T19:57:40.854Z,21.93
2022-08-17T20:00:13.438Z,21.89
2022-08-17T20:02:55.680Z,21.87
2022-08-17T20:05:44.231Z,21.82
2022-08-17T20:08:25.532Z,21.83
2022-08-17T20:10:59.481Z,21.81
2022-08-17T20:13:35.193Z,21.77
2022-08-17T20:16:05.407Z,21.74
2022-08-17T20:18:47.518Z,21.69
2022-08-17T20:21:23.412Z,21.64
2022-08-17T20:23:57.043Z,21.62
2022-08-17T20:26:30.935Z,21.59
2022-08-17T20:29:36.930Z,21.63
2022-08-17T20:32:29.997Z,21.60
2022-08-17T20:35:21.078Z,21.58
2022-08-17T20:38:01.748Z,21.51
2022-08-17T20:40:38.472Z,21.47
2022-08-17T20:43:46.307Z,21.42
2022-08-17T20:46:29.478Z,21.41
2022-08-17T20:49:20.583Z,21.39
2022-08-17T20:52:02.981Z,21.42
2022-08-17T20:54:49.135Z,21.40
2022-08-17T20:57:47.591Z,21.37
2022-08-17T21:00:45.536Z,21.32
2022-08-17T21:03:51.281Z,21.31
2022-08-17T21:06:28.456Z,21.31
2022-08-17T21:09:20.991Z,21.32
2022-08-17T21:12:04.343Z,21.25
2022-08-17T21:14:58.267Z,21.24
2022-08-17T21:17:42.150Z,21.19
2022-08-17T21:20:27.832Z,21.15
2022-08-17T21:23:30.060Z,21.14
2022-08-17T21:26:28.106Z,21.11
2022-08-17T21:29:30.943Z,21.09
2022-08-17T21:32:24.736Z,21.06
2022-08-17T21:35:25.086Z,21.02
2022-08-17T21:38:00.521Z,21.00
2022-08-17T21:40:33.366Z,20.89
2022-08-17T21:43:20.310Z,20.85
2022-08-17T21:45:57.929Z,20.83
2022-08-17T21:48:30.066Z,20.82
2022-08-17T21:51:05.991Z,20.83
2022-08-17T21:53:42.306Z,20.81
2022-08-17T21:56:14.989Z,20.81
2022-08-17T21:58:48.694Z,20.78
2022-08-17T22:01:25.746Z,20.77
2022-08-17T22:04:09.103Z,20.80
2022-08-17T22:06:41.558Z,20.82
2022-08-17T22:09:19.111Z,20.77
2022-08-17T22:11:55.184Z,20.82
2022-08-17T22:14:53.444Z,20.79
2022-08-17T22:17:21.040Z,20.72
2022-08-17T22:19:54.765Z,20.68
2022-08-17T22:22:31.039Z,20.64
2022-08-17T22:25:04.326Z,20.60
2022-08-17T22:28:04.067Z,20.54
2022-08-17T22:30:39.893Z,20.55
2022-08-17T22:33:31.709Z,20.51
2022-08-17T22:36:13.131Z,20.47
2022-08-17T22:38:43.607Z,20.47
2022-08-17T22:41:37.123Z,20.42
2022-08-17T22:44:23.691Z,20.37
2022-08-17T22:47:00.436Z,20.30
2022-08-17T22:49:33.883Z,20.25
2022-08-17T22:52:08.711Z,20.19
2022-08-17T22:54:55.261Z,20.13
2022-08-17T22:57:51.901Z,20.06
2022-08-17T23:00:34.651Z,20.03
2022-08-17T23:03:14.085Z,20.04
2022-08-17T23:05:45.776Z,20.10
2022-08-17T23:08:15.466Z,20.13
2022-08-17T23:10:46.701Z,20.10
2022-08-17T23:13:15.585Z,20.09
2022-08-17T23:15:44.788Z,20.07
2022-08-17T23:18:15.014Z,20.05
2022-08-17T23:20:44.068Z,20.03
2022-08-17T23:23:15.380Z,20.02
2022-08-17T23:25:46.939Z,20.03
2022-08-17T23:28:17.164Z,20.04
2022-08-17T23:30:49.038Z,20.00
2022-08-17T23:33:26.284Z,19.95
2022-08-17T23:35:55.310Z,19.92
2022-08-17T23:38:25.644Z,19.91
2022-08-17T23:40:54.795Z,19.90
2022-08-17T23:43:28.144Z,19.87
2022-08-17T23:45:59.958Z,19.90
2022-08-17T23:48:36.571Z,19.90
2022-08-17T23:51:13.993Z,19.89
2022-08-17T23:53:47.864Z,19.89
2022-08-17T23:56:20.813Z,19.91
2022-08-17T23:58:49.689Z,19.92
